sensor_id;sensor_type;location;lat;lon;timestamp;temperature;humidity
17938;DHT22;16051;53.024;8.630;2022-07-21T00:02:04;24.00;99.90
17938;DHT22;16051;53.024;8.630;2022-07-21T00:06:07;23.90;99.90
17938;DHT22;16051;53.024;8.630;2022-07-21T00:10:15;23.90;99.90
17938;DHT22;16051;53.024;8.630;2022-07-21T00:14:17;23.80;99.90
17938;DHT22;16051;53.024;8.630;2022-07-21T00:18:20;23.70;99.90
17938;DHT22;16051;53.024;8.630;2022-07-21T00:22:23;23.70;99.90
17938;DHT22;16051;53.024;8.630;2022-07-21T00:26:26;23.70;99.90
17938;DHT22;16051;53.024;8.630;2022-07-21T00:30:29;23.70;99.90
17938;DHT22;16051;53.024;8.630;2022-07-21T00:34:31;23.60;99.90
17938;DHT22;16051;53.024;8.630;2022-07-21T00:38:33;23.60;99.90
17938;DHT22;16051;53.024;8.630;2022-07-21T00:42:38;23.70;99.90
17938;DHT22;16051;53.024;8.630;2022-07-21T00:46:41;23.60;99.90
17938;DHT22;16051;53.024;8.630;2022-07-21T00:50:43;23.60;99.90
17938;DHT22;16051;53.024;8.630;2022-07-21T00:54:46;23.70;99.90
17938;DHT22;16051;53.024;8.630;2022-07-21T00:58:51;23.60;99.90
17938;DHT22;16051;53.024;8.630;2022-07-21T01:03:16;23.60;99.90
17938;DHT22;16051;53.024;8.630;2022-07-21T01:07:18;23.70;99.90
17938;DHT22;16051;53.024;8.630;2022-07-21T01:11:24;23.70;99.90
17938;DHT22;16051;53.024;8.630;2022-07-21T01:15:28;23.70;99.90
17938;DHT22;16051;53.024;8.630;2022-07-21T01:19:30;23.60;99.90
17938;DHT22;16051;53.024;8.630;2022-07-21T01:23:34;23.60;99.90
17938;DHT22;16051;53.024;8.630;2022-07-21T01:27:37;23.60;99.90
17938;DHT22;16051;53.024;8.630;2022-07-21T01:31:41;23.50;99.90
17938;DHT22;16051;53.024;8.630;2022-07-21T01:35:44;23.40;99.90
17938;DHT22;16051;53.024;8.630;2022-07-21T01:39:48;23.40;99.90
17938;DHT22;16051;53.024;8.630;2022-07-21T01:44:06;23.30;99.90
17938;DHT22;16051;53.024;8.630;2022-07-21T01:48:09;23.20;99.90
17938;DHT22;16051;53.024;8.630;2022-07-21T01:52:11;23.20;99.90
17938;DHT22;16051;53.024;8.630;2022-07-21T01:56:18;23.10;99.90
17938;DHT22;16051;53.024;8.630;2022-07-21T02:00:22;23.10;99.90
17938;DHT22;16051;53.024;8.630;2022-07-21T02:04:30;23.00;99.90
17938;DHT22;16051;53.024;8.630;2022-07-21T02:08:35;22.90;99.90
17938;DHT22;16051;53.024;8.630;2022-07-21T02:12:39;22.90;99.90
17938;DHT22;16051;53.024;8.630;2022-07-21T02:16:41;22.80;99.90
17938;DHT22;16051;53.024;8.630;2022-07-21T02:20:43;22.80;99.90
17938;DHT22;16051;53.024;8.630;2022-07-21T02:24:54;22.70;99.90
17938;DHT22;16051;53.024;8.630;2022-07-21T02:28:58;22.70;99.90
17938;DHT22;16051;53.024;8.630;2022-07-21T02:33:00;22.60;99.90
17938;DHT22;16051;53.024;8.630;2022-07-21T02:37:03;22.60;99.90
17938;DHT22;16051;53.024;8.630;2022-07-21T02:41:05;22.60;99.90
17938;DHT22;16051;53.024;8.630;2022-07-21T02:45:09;22.60;99.90
17938;DHT22;16051;53.024;8.630;2022-07-21T02:49:12;22.50;99.90
17938;DHT22;16051;53.024;8.630;2022-07-21T02:53:16;22.50;99.90
17938;DHT22;16051;53.024;8.630;2022-07-21T02:57:20;22.40;99.90
17938;DHT22;16051;53.024;8.630;2022-07-21T03:01:23;22.30;99.90
17938;DHT22;16051;53.024;8.630;2022-07-21T03:05:25;22.30;99.90
17938;DHT22;16051;53.024;8.630;2022-07-21T03:09:27;22.20;99.90
17938;DHT22;16051;53.024;8.630;2022-07-21T03:13:29;22.20;99.90
17938;DHT22;16051;53.024;8.630;2022-07-21T03:17:33;22.20;99.90
17938;DHT22;16051;53.024;8.630;2022-07-21T03:21:35;22.10;99.90
17938;DHT22;16051;53.024;8.630;2022-07-21T03:25:41;22.10;99.90
17938;DHT22;16051;53.024;8.630;2022-07-21T03:29:44;22.00;99.90
17938;DHT22;16051;53.024;8.630;2022-07-21T03:33:47;22.00;99.90
17938;DHT22;16051;53.024;8.630;2022-07-21T03:37:52;22.00;99.90
17938;DHT22;16051;53.024;8.630;2022-07-21T03:41:56;21.90;99.90
17938;DHT22;16051;53.024;8.630;2022-07-21T03:45:59;21.80;99.90
17938;DHT22;16051;53.024;8.630;2022-07-21T03:50:03;21.80;99.90
17938;DHT22;16051;53.024;8.630;2022-07-21T03:54:07;21.70;99.90
17938;DHT22;16051;53.024;8.630;2022-07-21T03:58:09;21.70;99.90
17938;DHT22;16051;53.024;8.630;2022-07-21T04:02:25;21.70;99.90
17938;DHT22;16051;53.024;8.630;2022-07-21T04:06:29;21.60;99.90
17938;DHT22;16051;53.024;8.630;2022-07-21T04:10:33;21.60;99.90
17938;DHT22;16051;53.024;8.630;2022-07-21T04:14:37;21.60;99.90
17938;DHT22;16051;53.024;8.630;2022-07-21T04:18:40;21.60;99.90
17938;DHT22;16051;53.024;8.630;2022-07-21T04:23:02;21.50;99.90
17938;DHT22;16051;53.024;8.630;2022-07-21T04:27:05;21.50;99.90
17938;DHT22;16051;53.024;8.630;2022-07-21T04:31:07;21.40;99.90
17938;DHT22;16051;53.024;8.630;2022-07-21T04:35:10;21.40;99.90
17938;DHT22;16051;53.024;8.630;2022-07-21T04:39:14;21.40;99.90
17938;DHT22;16051;53.024;8.630;2022-07-21T04:43:32;21.40;99.90
17938;DHT22;16051;53.024;8.630;2022-07-21T04:47:42;21.30;99.90
17938;DHT22;16051;53.024;8.630;2022-07-21T04:51:45;21.30;99.90
17938;DHT22;16051;53.024;8.630;2022-07-21T04:55:48;21.30;99.90
17938;DHT22;16051;53.024;8.630;2022-07-21T04:59:50;21.30;99.90
17938;DHT22;16051;53.024;8.630;2022-07-21T05:03:52;21.30;99.90
17938;DHT22;16051;53.024;8.630;2022-07-21T05:07:54;21.30;99.90
17938;DHT22;16051;53.024;8.630;2022-07-21T05:11:58;21.30;99.90
17938;DHT22;16051;53.024;8.630;2022-07-21T05:16:00;21.30;99.90
17938;DHT22;16051;53.024;8.630;2022-07-21T05:20:03;21.30;99.90
17938;DHT22;16051;53.024;8.630;2022-07-21T05:24:06;21.30;99.90
17938;DHT22;16051;53.024;8.630;2022-07-21T05:28:10;21.40;99.90
17938;DHT22;16051;53.024;8.630;2022-07-21T05:32:13;21.50;99.90
17938;DHT22;16051;53.024;8.630;2022-07-21T05:36:15;21.50;99.90
17938;DHT22;16051;53.024;8.630;2022-07-21T05:40:19;21.50;99.90
17938;DHT22;16051;53.024;8.630;2022-07-21T05:44:28;21.50;99.90
17938;DHT22;16051;53.024;8.630;2022-07-21T05:48:30;21.50;99.90
17938;DHT22;16051;53.024;8.630;2022-07-21T05:52:32;21.50;99.90
17938;DHT22;16051;53.024;8.630;2022-07-21T05:56:34;21.50;99.90
17938;DHT22;16051;53.024;8.630;2022-07-21T06:00:38;21.50;99.90
17938;DHT22;16051;53.024;8.630;2022-07-21T06:04:40;21.50;99.90
17938;DHT22;16051;53.024;8.630;2022-07-21T06:08:44;21.50;99.90
17938;DHT22;16051;53.024;8.630;2022-07-21T06:12:55;21.50;99.90
17938;DHT22;16051;53.024;8.630;2022-07-21T06:16:59;21.50;99.90
17938;DHT22;16051;53.024;8.630;2022-07-21T06:21:01;21.40;99.90
17938;DHT22;16051;53.024;8.630;2022-07-21T06:25:05;21.40;99.90
17938;DHT22;16051;53.024;8.630;2022-07-21T06:29:18;21.40;99.90
17938;DHT22;16051;53.024;8.630;2022-07-21T06:33:21;21.40;99.90
17938;DHT22;16051;53.024;8.630;2022-07-21T06:37:23;21.20;99.90
17938;DHT22;16051;53.024;8.630;2022-07-21T06:41:28;21.20;99.90
17938;DHT22;16051;53.024;8.630;2022-07-21T06:45:31;21.10;99.90
17938;DHT22;16051;53.024;8.630;2022-07-21T06:49:34;21.00;99.90
17938;DHT22;16051;53.024;8.630;2022-07-21T06:53:36;20.80;99.90
17938;DHT22;16051;53.024;8.630;2022-07-21T06:57:39;20.80;99.90
17938;DHT22;16051;53.024;8.630;2022-07-21T07:01:46;20.70;99.90
17938;DHT22;16051;53.024;8.630;2022-07-21T07:05:50;20.80;99.90
17938;DHT22;16051;53.024;8.630;2022-07-21T07:09:52;20.90;99.90
17938;DHT22;16051;53.024;8.630;2022-07-21T07:14:04;21.10;99.90
17938;DHT22;16051;53.024;8.630;2022-07-21T07:18:06;21.30;99.90
17938;DHT22;16051;53.024;8.630;2022-07-21T07:22:19;21.40;99.90
17938;DHT22;16051;53.024;8.630;2022-07-21T07:26:21;21.60;99.90
17938;DHT22;16051;53.024;8.630;2022-07-21T07:30:43;21.60;99.90
17938;DHT22;16051;53.024;8.630;2022-07-21T07:34:45;21.60;99.90
17938;DHT22;16051;53.024;8.630;2022-07-21T07:38:48;21.70;99.90
17938;DHT22;16051;53.024;8.630;2022-07-21T07:42:52;21.90;99.90
17938;DHT22;16051;53.024;8.630;2022-07-21T07:46:54;22.00;99.90
17938;DHT22;16051;53.024;8.630;2022-07-21T07:50:57;22.00;99.90
17938;DHT22;16051;53.024;8.630;2022-07-21T07:55:00;22.20;99.90
17938;DHT22;16051;53.024;8.630;2022-07-21T07:59:05;22.20;99.90
17938;DHT22;16051;53.024;8.630;2022-07-21T08:03:07;22.00;99.90
17938;DHT22;16051;53.024;8.630;2022-07-21T08:07:09;21.90;99.90
17938;DHT22;16051;53.024;8.630;2022-07-21T08:11:13;21.80;99.90
17938;DHT22;16051;53.024;8.630;2022-07-21T08:15:16;21.90;99.90
17938;DHT22;16051;53.024;8.630;2022-07-21T08:19:24;22.00;99.90
17938;DHT22;16051;53.024;8.630;2022-07-21T08:23:29;22.20;99.90
17938;DHT22;16051;53.024;8.630;2022-07-21T08:27:32;22.40;99.90
17938;DHT22;16051;53.024;8.630;2022-07-21T08:31:34;22.50;99.90
17938;DHT22;16051;53.024;8.630;2022-07-21T08:35:36;22.80;99.90
17938;DHT22;16051;53.024;8.630;2022-07-21T08:39:38;23.20;99.90
17938;DHT22;16051;53.024;8.630;2022-07-21T08:43:42;23.70;99.90
17938;DHT22;16051;53.024;8.630;2022-07-21T08:47:46;24.00;99.90
17938;DHT22;16051;53.024;8.630;2022-07-21T08:51:48;23.50;99.90
17938;DHT22;16051;53.024;8.630;2022-07-21T08:55:51;22.80;99.90
17938;DHT22;16051;53.024;8.630;2022-07-21T09:00:02;22.70;99.90
17938;DHT22;16051;53.024;8.630;2022-07-21T09:04:21;22.20;99.90
17938;DHT22;16051;53.024;8.630;2022-07-21T09:08:35;22.10;99.90
17938;DHT22;16051;53.024;8.630;2022-07-21T09:12:50;22.10;99.90
17938;DHT22;16051;53.024;8.630;2022-07-21T09:16:56;22.10;99.90
17938;DHT22;16051;53.024;8.630;2022-07-21T09:21:00;22.30;99.90
17938;DHT22;16051;53.024;8.630;2022-07-21T09:25:03;22.40;99.90
17938;DHT22;16051;53.024;8.630;2022-07-21T09:29:09;22.40;99.90
17938;DHT22;16051;53.024;8.630;2022-07-21T09:33:21;22.70;99.90
17938;DHT22;16051;53.024;8.630;2022-07-21T09:37:38;23.30;99.90
17938;DHT22;16051;53.024;8.630;2022-07-21T09:41:41;23.30;99.90
17938;DHT22;16051;53.024;8.630;2022-07-21T09:45:43;23.40;99.90
17938;DHT22;16051;53.024;8.630;2022-07-21T09:49:50;23.40;99.90
17938;DHT22;16051;53.024;8.630;2022-07-21T09:53:55;23.40;99.90
17938;DHT22;16051;53.024;8.630;2022-07-21T09:58:00;23.40;99.90
17938;DHT22;16051;53.024;8.630;2022-07-21T10:02:05;23.40;99.90
17938;DHT22;16051;53.024;8.630;2022-07-21T10:06:09;23.70;99.90
17938;DHT22;16051;53.024;8.630;2022-07-21T10:10:12;23.90;99.90
17938;DHT22;16051;53.024;8.630;2022-07-21T10:14:15;24.10;99.90
17938;DHT22;16051;53.024;8.630;2022-07-21T10:18:19;24.40;99.90
17938;DHT22;16051;53.024;8.630;2022-07-21T10:22:57;24.80;99.90
17938;DHT22;16051;53.024;8.630;2022-07-21T10:27:06;24.80;99.90
17938;DHT22;16051;53.024;8.630;2022-07-21T10:31:14;25.30;99.90
17938;DHT22;16051;53.024;8.630;2022-07-21T10:35:27;25.40;99.90
17938;DHT22;16051;53.024;8.630;2022-07-21T10:39:38;25.20;99.90
17938;DHT22;16051;53.024;8.630;2022-07-21T10:43:44;25.30;99.90
17938;DHT22;16051;53.024;8.630;2022-07-21T10:47:46;25.10;99.90
17938;DHT22;16051;53.024;8.630;2022-07-21T10:52:00;24.80;99.90
17938;DHT22;16051;53.024;8.630;2022-07-21T10:56:04;25.30;99.90
17938;DHT22;16051;53.024;8.630;2022-07-21T11:00:18;25.80;99.90
17938;DHT22;16051;53.024;8.630;2022-07-21T11:04:27;26.10;99.90
17938;DHT22;16051;53.024;8.630;2022-07-21T11:08:31;26.10;99.90
17938;DHT22;16051;53.024;8.630;2022-07-21T11:12:56;25.80;99.90
17938;DHT22;16051;53.024;8.630;2022-07-21T11:16:59;25.20;99.90
17938;DHT22;16051;53.024;8.630;2022-07-21T11:21:17;25.00;99.90
17938;DHT22;16051;53.024;8.630;2022-07-21T11:25:19;25.60;99.90
17938;DHT22;16051;53.024;8.630;2022-07-21T11:29:23;25.70;99.90
17938;DHT22;16051;53.024;8.630;2022-07-21T11:33:26;25.60;99.90
17938;DHT22;16051;53.024;8.630;2022-07-21T11:37:31;25.60;99.90
17938;DHT22;16051;53.024;8.630;2022-07-21T11:41:50;26.90;99.90
17938;DHT22;16051;53.024;8.630;2022-07-21T11:45:57;27.00;99.90
17938;DHT22;16051;53.024;8.630;2022-07-21T11:50:01;26.70;99.90
17938;DHT22;16051;53.024;8.630;2022-07-21T11:54:06;26.30;99.90
17938;DHT22;16051;53.024;8.630;2022-07-21T11:58:25;26.10;99.90
17938;DHT22;16051;53.024;8.630;2022-07-21T12:02:29;25.90;99.90
17938;DHT22;16051;53.024;8.630;2022-07-21T12:06:32;25.70;99.90
17938;DHT22;16051;53.024;8.630;2022-07-21T12:10:34;26.00;99.90
17938;DHT22;16051;53.024;8.630;2022-07-21T12:14:48;25.70;99.90
17938;DHT22;16051;53.024;8.630;2022-07-21T12:19:11;25.70;99.90
17938;DHT22;16051;53.024;8.630;2022-07-21T12:23:22;27.10;99.90
17938;DHT22;16051;53.024;8.630;2022-07-21T12:27:26;27.30;99.90
17938;DHT22;16051;53.024;8.630;2022-07-21T12:31:32;26.90;99.90
17938;DHT22;16051;53.024;8.630;2022-07-21T12:35:41;27.00;99.90
17938;DHT22;16051;53.024;8.630;2022-07-21T12:40:00;26.70;99.90
17938;DHT22;16051;53.024;8.630;2022-07-21T12:44:03;25.50;99.90
17938;DHT22;16051;53.024;8.630;2022-07-21T12:48:23;24.80;99.90
17938;DHT22;16051;53.024;8.630;2022-07-21T12:52:29;24.50;99.90
17938;DHT22;16051;53.024;8.630;2022-07-21T12:56:34;24.10;99.90
17938;DHT22;16051;53.024;8.630;2022-07-21T13:00:45;23.80;99.90
17938;DHT22;16051;53.024;8.630;2022-07-21T13:04:47;23.70;99.90
17938;DHT22;16051;53.024;8.630;2022-07-21T13:08:52;23.90;99.90
17938;DHT22;16051;53.024;8.630;2022-07-21T13:13:03;23.70;99.90
17938;DHT22;16051;53.024;8.630;2022-07-21T13:17:13;23.90;99.90
17938;DHT22;16051;53.024;8.630;2022-07-21T13:21:18;24.00;99.90
17938;DHT22;16051;53.024;8.630;2022-07-21T13:25:22;24.70;99.90
17938;DHT22;16051;53.024;8.630;2022-07-21T13:29:24;25.20;99.90
17938;DHT22;16051;53.024;8.630;2022-07-21T13:33:26;25.20;99.90
17938;DHT22;16051;53.024;8.630;2022-07-21T13:37:28;25.00;99.90
17938;DHT22;16051;53.024;8.630;2022-07-21T13:41:33;24.70;99.90
17938;DHT22;16051;53.024;8.630;2022-07-21T13:45:36;24.60;99.90
17938;DHT22;16051;53.024;8.630;2022-07-21T13:49:39;24.30;99.90
17938;DHT22;16051;53.024;8.630;2022-07-21T13:53:42;24.40;99.90
17938;DHT22;16051;53.024;8.630;2022-07-21T13:57:47;24.30;99.90
17938;DHT22;16051;53.024;8.630;2022-07-21T14:01:49;24.60;99.90
17938;DHT22;16051;53.024;8.630;2022-07-21T14:06:05;25.90;99.90
17938;DHT22;16051;53.024;8.630;2022-07-21T14:10:08;26.80;99.90
17938;DHT22;16051;53.024;8.630;2022-07-21T14:14:14;26.80;99.90
17938;DHT22;16051;53.024;8.630;2022-07-21T14:18:23;27.60;99.90
17938;DHT22;16051;53.024;8.630;2022-07-21T14:22:32;27.40;99.90
17938;DHT22;16051;53.024;8.630;2022-07-21T14:26:34;27.80;99.90
17938;DHT22;16051;53.024;8.630;2022-07-21T14:30:48;28.30;99.90
17938;DHT22;16051;53.024;8.630;2022-07-21T14:34:51;28.20;99.90
17938;DHT22;16051;53.024;8.630;2022-07-21T14:38:54;27.70;99.90
17938;DHT22;16051;53.024;8.630;2022-07-21T14:42:56;27.20;99.90
17938;DHT22;16051;53.024;8.630;2022-07-21T14:46:59;26.70;99.90
17938;DHT22;16051;53.024;8.630;2022-07-21T14:51:01;26.10;99.90
17938;DHT22;16051;53.024;8.630;2022-07-21T14:55:05;26.30;99.90
17938;DHT22;16051;53.024;8.630;2022-07-21T14:59:08;26.50;99.90
17938;DHT22;16051;53.024;8.630;2022-07-21T15:03:12;26.60;99.90
17938;DHT22;16051;53.024;8.630;2022-07-21T15:07:25;26.30;99.90
17938;DHT22;16051;53.024;8.630;2022-07-21T15:11:33;26.20;99.90
17938;DHT22;16051;53.024;8.630;2022-07-21T15:15:35;26.00;99.90
17938;DHT22;16051;53.024;8.630;2022-07-21T15:19:53;25.90;99.90
17938;DHT22;16051;53.024;8.630;2022-07-21T15:23:59;25.60;99.90
17938;DHT22;16051;53.024;8.630;2022-07-21T15:28:03;25.50;99.90
17938;DHT22;16051;53.024;8.630;2022-07-21T15:32:06;24.80;99.90
17938;DHT22;16051;53.024;8.630;2022-07-21T15:36:20;23.60;99.90
17938;DHT22;16051;53.024;8.630;2022-07-21T15:40:22;22.80;99.90
17938;DHT22;16051;53.024;8.630;2022-07-21T15:44:25;22.20;99.90
17938;DHT22;16051;53.024;8.630;2022-07-21T15:48:36;22.90;99.90
17938;DHT22;16051;53.024;8.630;2022-07-21T15:52:40;23.60;99.90
17938;DHT22;16051;53.024;8.630;2022-07-21T15:56:44;23.70;99.90
17938;DHT22;16051;53.024;8.630;2022-07-21T16:00:47;23.70;99.90
17938;DHT22;16051;53.024;8.630;2022-07-21T16:04:58;23.60;99.90
17938;DHT22;16051;53.024;8.630;2022-07-21T16:09:02;23.50;99.90
17938;DHT22;16051;53.024;8.630;2022-07-21T16:13:05;23.30;99.90
17938;DHT22;16051;53.024;8.630;2022-07-21T16:17:23;23.30;99.90
17938;DHT22;16051;53.024;8.630;2022-07-21T16:21:26;23.20;99.90
17938;DHT22;16051;53.024;8.630;2022-07-21T16:25:38;23.20;99.90
17938;DHT22;16051;53.024;8.630;2022-07-21T16:29:41;23.20;99.90
17938;DHT22;16051;53.024;8.630;2022-07-21T16:33:43;23.20;99.90
17938;DHT22;16051;53.024;8.630;2022-07-21T16:37:48;23.30;99.90
17938;DHT22;16051;53.024;8.630;2022-07-21T16:41:53;23.40;99.90
17938;DHT22;16051;53.024;8.630;2022-07-21T16:45:56;23.50;99.90
17938;DHT22;16051;53.024;8.630;2022-07-21T16:50:07;23.70;99.90
17938;DHT22;16051;53.024;8.630;2022-07-21T16:54:10;23.70;99.90
17938;DHT22;16051;53.024;8.630;2022-07-21T16:58:14;23.70;99.90
17938;DHT22;16051;53.024;8.630;2022-07-21T17:02:16;23.80;99.90
17938;DHT22;16051;53.024;8.630;2022-07-21T17:06:25;23.90;99.90
17938;DHT22;16051;53.024;8.630;2022-07-21T17:10:35;24.00;99.90
17938;DHT22;16051;53.024;8.630;2022-07-21T17:14:38;24.20;99.90
17938;DHT22;16051;53.024;8.630;2022-07-21T17:18:41;24.20;99.90
17938;DHT22;16051;53.024;8.630;2022-07-21T17:23:10;24.10;99.90
17938;DHT22;16051;53.024;8.630;2022-07-21T17:27:12;24.00;99.90
17938;DHT22;16051;53.024;8.630;2022-07-21T17:31:16;23.80;99.90
17938;DHT22;16051;53.024;8.630;2022-07-21T17:35:18;23.70;99.90
17938;DHT22;16051;53.024;8.630;2022-07-21T17:39:20;23.70;99.90
17938;DHT22;16051;53.024;8.630;2022-07-21T17:43:23;23.70;99.90
17938;DHT22;16051;53.024;8.630;2022-07-21T17:47:31;23.70;99.90
17938;DHT22;16051;53.024;8.630;2022-07-21T17:51:33;23.70;99.90
17938;DHT22;16051;53.024;8.630;2022-07-21T17:55:39;23.60;99.90
17938;DHT22;16051;53.024;8.630;2022-07-21T17:59:43;23.50;99.90
17938;DHT22;16051;53.024;8.630;2022-07-21T18:03:48;23.50;99.90
17938;DHT22;16051;53.024;8.630;2022-07-21T18:07:53;23.50;99.90
17938;DHT22;16051;53.024;8.630;2022-07-21T18:12:02;23.40;99.90
17938;DHT22;16051;53.024;8.630;2022-07-21T18:16:06;23.30;99.90
17938;DHT22;16051;53.024;8.630;2022-07-21T18:20:12;23.30;99.90
17938;DHT22;16051;53.024;8.630;2022-07-21T18:24:28;23.20;99.90
17938;DHT22;16051;53.024;8.630;2022-07-21T18:28:32;23.10;99.90
17938;DHT22;16051;53.024;8.630;2022-07-21T18:32:34;23.10;99.90
17938;DHT22;16051;53.024;8.630;2022-07-21T18:36:43;22.80;99.90
17938;DHT22;16051;53.024;8.630;2022-07-21T18:40:45;22.70;99.90
17938;DHT22;16051;53.024;8.630;2022-07-21T18:44:47;22.70;99.90
17938;DHT22;16051;53.024;8.630;2022-07-21T18:48:49;22.60;99.90
17938;DHT22;16051;53.024;8.630;2022-07-21T18:52:53;22.60;99.90
17938;DHT22;16051;53.024;8.630;2022-07-21T18:56:55;22.50;99.90
17938;DHT22;16051;53.024;8.630;2022-07-21T19:00:57;22.30;99.90
17938;DHT22;16051;53.024;8.630;2022-07-21T19:05:05;22.20;99.90
17938;DHT22;16051;53.024;8.630;2022-07-21T19:09:09;22.10;99.90
17938;DHT22;16051;53.024;8.630;2022-07-21T19:13:11;22.10;99.90
17938;DHT22;16051;53.024;8.630;2022-07-21T19:17:16;22.00;99.90
17938;DHT22;16051;53.024;8.630;2022-07-21T19:21:19;21.90;99.90
17938;DHT22;16051;53.024;8.630;2022-07-21T19:25:23;21.90;99.90
17938;DHT22;16051;53.024;8.630;2022-07-21T19:29:27;21.90;99.90
17938;DHT22;16051;53.024;8.630;2022-07-21T19:33:29;21.80;99.90
17938;DHT22;16051;53.024;8.630;2022-07-21T19:37:32;21.70;99.90
17938;DHT22;16051;53.024;8.630;2022-07-21T19:41:49;21.70;99.90
17938;DHT22;16051;53.024;8.630;2022-07-21T19:45:51;21.60;99.90
17938;DHT22;16051;53.024;8.630;2022-07-21T19:50:20;21.60;99.90
17938;DHT22;16051;53.024;8.630;2022-07-21T19:54:23;21.50;99.90
17938;DHT22;16051;53.024;8.630;2022-07-21T19:58:27;21.40;99.90
17938;DHT22;16051;53.024;8.630;2022-07-21T20:02:30;21.40;99.90
17938;DHT22;16051;53.024;8.630;2022-07-21T20:06:32;21.40;99.90
17938;DHT22;16051;53.024;8.630;2022-07-21T20:10:34;21.30;99.90
17938;DHT22;16051;53.024;8.630;2022-07-21T20:14:37;21.30;99.90
17938;DHT22;16051;53.024;8.630;2022-07-21T20:18:40;21.20;99.90
17938;DHT22;16051;53.024;8.630;2022-07-21T20:22:42;21.10;99.90
17938;DHT22;16051;53.024;8.630;2022-07-21T20:26:55;21.20;99.90
17938;DHT22;16051;53.024;8.630;2022-07-21T20:30:59;21.10;99.90
17938;DHT22;16051;53.024;8.630;2022-07-21T20:35:01;21.00;99.90
17938;DHT22;16051;53.024;8.630;2022-07-21T20:39:05;21.00;99.90
17938;DHT22;16051;53.024;8.630;2022-07-21T20:43:11;20.90;99.90
17938;DHT22;16051;53.024;8.630;2022-07-21T20:47:15;20.90;99.90
17938;DHT22;16051;53.024;8.630;2022-07-21T20:51:28;20.90;99.90
17938;DHT22;16051;53.024;8.630;2022-07-21T21:06:03;20.90;99.90
17938;DHT22;16051;53.024;8.630;2022-07-21T21:10:06;20.80;99.90
17938;DHT22;16051;53.024;8.630;2022-07-21T21:14:08;20.80;99.90
17938;DHT22;16051;53.024;8.630;2022-07-21T21:18:10;20.80;99.90
17938;DHT22;16051;53.024;8.630;2022-07-21T21:22:13;20.80;99.90
17938;DHT22;16051;53.024;8.630;2022-07-21T21:26:16;20.80;99.90
17938;DHT22;16051;53.024;8.630;2022-07-21T21:30:18;20.80;99.90
17938;DHT22;16051;53.024;8.630;2022-07-21T21:34:20;20.70;99.90
17938;DHT22;16051;53.024;8.630;2022-07-21T21:43:50;20.70;99.90
17938;DHT22;16051;53.024;8.630;2022-07-21T21:47:52;20.60;99.90
17938;DHT22;16051;53.024;8.630;2022-07-21T21:51:54;20.60;99.90
17938;DHT22;16051;53.024;8.630;2022-07-21T21:55:56;20.60;99.90
17938;DHT22;16051;53.024;8.630;2022-07-21T22:00:00;20.50;99.90
17938;DHT22;16051;53.024;8.630;2022-07-21T22:04:02;20.50;99.90
17938;DHT22;16051;53.024;8.630;2022-07-21T22:08:05;20.40;99.90
17938;DHT22;16051;53.024;8.630;2022-07-21T22:12:07;20.40;99.90
17938;DHT22;16051;53.024;8.630;2022-07-21T22:16:20;20.40;99.90
17938;DHT22;16051;53.024;8.630;2022-07-21T22:25:38;20.30;99.90
17938;DHT22;16051;53.024;8.630;2022-07-21T22:29:40;20.20;99.90
17938;DHT22;16051;53.024;8.630;2022-07-21T22:33:44;20.20;99.90
17938;DHT22;16051;53.024;8.630;2022-07-21T22:37:47;20.10;99.90
17938;DHT22;16051;53.024;8.630;2022-07-21T22:42:23;20.00;99.90
17938;DHT22;16051;53.024;8.630;2022-07-21T22:46:25;20.00;99.90
17938;DHT22;16051;53.024;8.630;2022-07-21T22:50:29;19.90;99.90
17938;DHT22;16051;53.024;8.630;2022-07-21T22:54:31;19.90;99.90
17938;DHT22;16051;53.024;8.630;2022-07-21T22:58:33;19.80;99.90
17938;DHT22;16051;53.024;8.630;2022-07-21T23:02:35;19.70;99.90
17938;DHT22;16051;53.024;8.630;2022-07-21T23:06:39;19.70;99.90
17938;DHT22;16051;53.024;8.630;2022-07-21T23:10:41;19.70;99.90
17938;DHT22;16051;53.024;8.630;2022-07-21T23:14:43;19.60;99.90
17938;DHT22;16051;53.024;8.630;2022-07-21T23:18:45;19.50;99.90
17938;DHT22;16051;53.024;8.630;2022-07-21T23:22:49;19.50;99.90
17938;DHT22;16051;53.024;8.630;2022-07-21T23:26:58;19.50;99.90
17938;DHT22;16051;53.024;8.630;2022-07-21T23:31:00;19.40;99.90
17938;DHT22;16051;53.024;8.630;2022-07-21T23:35:04;19.40;99.90
17938;DHT22;16051;53.024;8.630;2022-07-21T23:39:08;19.30;99.90
17938;DHT22;16051;53.024;8.630;2022-07-21T23:43:10;19.20;99.90
17938;DHT22;16051;53.024;8.630;2022-07-21T23:47:28;19.20;99.90
17938;DHT22;16051;53.024;8.630;2022-07-21T23:51:31;19.10;99.90
17938;DHT22;16051;53.024;8.630;2022-07-21T23:55:34;19.10;99.90
17938;DHT22;16051;53.024;8.630;2022-07-21T23:59:36;19.10;99.90
